Time;durP1;ratioP1;P1;durP2;ratioP2;P2;SDS_P1;SDS_P2;PMS_P1;PMS_P2;Temp;Humidity;BMP_temperature;BMP_pressure;BME280_temperature;BME280_humidity;BME280_pressure;Samples;Min_cycle;Max_cycle;Signal;HPM_P1;HPM_P2
2021/07/26 00:01:31;;;;;;;0.80;0.77;;;;;;;;;;5029161;28;20037;-63
2021/07/26 00:03:57;;;;;;;0.70;0.70;;;;;;;;;;5029378;28;20030;-64
2021/07/26 00:06:23;;;;;;;1.02;0.93;;;;;;;;;;5028907;28;20136;-64
2021/07/26 00:08:49;;;;;;;0.73;0.73;;;;;;;;;;5029125;28;20519;-64
2021/07/26 00:11:15;;;;;;;0.80;0.77;;;;;;;;;;5029216;28;20017;-64
2021/07/26 00:13:41;;;;;;;1.00;0.80;;;;;;;;;;5029337;28;20025;-64
2021/07/26 00:16:08;;;;;;;1.38;0.88;;;;;;;;;;5028686;28;20025;-63
2021/07/26 00:18:34;;;;;;;0.60;0.60;;;;;;;;;;5028945;28;20025;-63
2021/07/26 00:21:01;;;;;;;1.25;0.75;;;;;;;;;;5027803;28;20038;-63
2021/07/26 00:23:27;;;;;;;0.70;0.63;;;;;;;;;;5028929;28;20606;-63
2021/07/26 00:25:53;;;;;;;0.95;0.85;;;;;;;;;;5028965;28;20515;-63
2021/07/26 00:28:20;;;;;;;1.17;0.80;;;;;;;;;;5028003;28;20737;-63
2021/07/26 00:30:46;;;;;;;0.82;0.77;;;;;;;;;;5028901;28;20026;-64
2021/07/26 00:33:39;;;;;;;1.35;1.10;;;;;;;;;;5027951;28;20396;-64
2021/07/26 00:36:05;;;;;;;0.73;0.73;;;;;;;;;;5027037;28;20647;-64
2021/07/26 00:38:31;;;;;;;0.85;0.80;;;;;;;;;;5041772;28;20021;-64
2021/07/26 00:40:57;;;;;;;0.80;0.80;;;;;;;;;;5048187;28;20025;-64
2021/07/26 00:43:23;;;;;;;1.08;0.88;;;;;;;;;;5048519;28;20129;-64
2021/07/26 00:45:51;;;;;;;1.25;1.00;;;;;;;;;;5048269;28;20496;-64
2021/07/26 00:48:17;;;;;;;0.80;0.73;;;;;;;;;;5047218;28;20021;-64
2021/07/26 00:50:43;;;;;;;0.68;0.68;;;;;;;;;;5048534;28;20090;-64
2021/07/26 00:53:09;;;;;;;1.50;1.00;;;;;;;;;;5048333;28;20055;-64
2021/07/26 00:55:35;;;;;;;0.77;0.73;;;;;;;;;;5048062;28;20376;-64
2021/07/26 00:58:01;;;;;;;0.93;0.80;;;;;;;;;;5046772;28;20025;-64
2021/07/26 01:00:27;;;;;;;0.98;0.90;;;;;;;;;;5047429;28;20490;-64
2021/07/26 01:02:53;;;;;;;1.05;0.80;;;;;;;;;;5048011;28;20507;-64
2021/07/26 01:05:19;;;;;;;0.80;0.80;;;;;;;;;;5047776;28;20548;-64
2021/07/26 01:07:45;;;;;;;1.00;0.90;;;;;;;;;;5037871;28;20104;-64
2021/07/26 01:10:12;;;;;;;1.13;1.02;;;;;;;;;;5027832;28;20431;-64
2021/07/26 01:12:38;;;;;;;0.80;0.77;;;;;;;;;;5028041;28;20022;-64
2021/07/26 01:15:04;;;;;;;0.98;0.90;;;;;;;;;;5047439;28;20044;-64
2021/07/26 01:17:41;;;;;;;1.10;1.00;;;;;;;;;;5040713;28;20029;-64
2021/07/26 01:20:07;;;;;;;1.00;0.90;;;;;;;;;;5027985;28;20104;-63
2021/07/26 01:22:34;;;;;;;1.08;0.98;;;;;;;;;;5027828;28;20488;-63
2021/07/26 01:25:01;;;;;;;1.02;0.90;;;;;;;;;;5028408;28;20510;-63
2021/07/26 01:27:27;;;;;;;1.02;0.93;;;;;;;;;;5027440;28;20061;-63
2021/07/26 01:29:53;;;;;;;1.20;1.10;;;;;;;;;;5027508;28;20070;-64
2021/07/26 01:32:19;;;;;;;1.50;1.02;;;;;;;;;;5027477;28;20025;-64
2021/07/26 01:34:45;;;;;;;1.35;1.00;;;;;;;;;;5027837;28;20439;-64
2021/07/26 01:37:11;;;;;;;1.10;1.00;;;;;;;;;;5027219;28;20032;-64
2021/07/26 01:39:37;;;;;;;1.10;1.00;;;;;;;;;;5027613;28;20399;-64
2021/07/26 01:42:05;;;;;;;1.42;1.00;;;;;;;;;;5032642;28;20048;-64
2021/07/26 01:44:31;;;;;;;1.05;0.90;;;;;;;;;;5047344;28;20036;-64
2021/07/26 01:47:03;;;;;;;1.00;0.90;;;;;;;;;;5044051;28;20037;-64
2021/07/26 01:49:36;;;;;;;1.10;1.00;;;;;;;;;;5026907;28;20091;-64
2021/07/26 01:52:02;;;;;;;0.90;0.90;;;;;;;;;;5026981;28;20096;-64
2021/07/26 01:54:29;;;;;;;1.10;1.00;;;;;;;;;;5026710;28;20025;-63
2021/07/26 01:56:55;;;;;;;1.10;1.00;;;;;;;;;;5025528;28;20107;-63
2021/07/26 01:59:21;;;;;;;1.10;1.00;;;;;;;;;;5026843;28;20049;-64
2021/07/26 02:01:47;;;;;;;1.10;1.00;;;;;;;;;;5027211;28;20026;-64
2021/07/26 02:04:14;;;;;;;0.93;0.80;;;;;;;;;;5027621;28;20726;-64
2021/07/26 02:06:40;;;;;;;0.80;0.80;;;;;;;;;;5027203;28;20022;-64
2021/07/26 02:09:06;;;;;;;1.27;1.02;;;;;;;;;;5044282;28;20032;-63
2021/07/26 02:11:32;;;;;;;1.52;1.23;;;;;;;;;;5046714;28;20108;-63
2021/07/26 02:13:58;;;;;;;1.35;1.25;;;;;;;;;;5045894;28;20658;-64
2021/07/26 02:16:25;;;;;;;1.00;0.90;;;;;;;;;;5046306;28;20579;-63
2021/07/26 02:18:50;;;;;;;1.83;1.10;;;;;;;;;;5045551;28;20035;-63
2021/07/26 02:21:17;;;;;;;1.33;1.10;;;;;;;;;;5046994;28;20503;-63
2021/07/26 02:23:43;;;;;;;0.85;0.85;;;;;;;;;;5045689;28;20544;-63
2021/07/26 02:26:09;;;;;;;1.08;1.00;;;;;;;;;;5046793;28;20027;-63
2021/07/26 02:28:35;;;;;;;0.80;0.80;;;;;;;;;;5031197;28;20491;-63
2021/07/26 02:31:01;;;;;;;1.17;1.00;;;;;;;;;;5026704;28;20785;-63
2021/07/26 02:33:27;;;;;;;1.65;0.90;;;;;;;;;;5026504;28;20033;-64
2021/07/26 02:35:53;;;;;;;1.20;1.10;;;;;;;;;;5026810;28;20026;-64
2021/07/26 02:38:19;;;;;;;0.95;0.90;;;;;;;;;;5025018;28;20040;-64
2021/07/26 02:40:45;;;;;;;1.15;1.05;;;;;;;;;;5025861;28;20423;-64
2021/07/26 02:43:11;;;;;;;1.23;1.13;;;;;;;;;;5024493;28;20034;-64
2021/07/26 02:45:37;;;;;;;1.48;1.23;;;;;;;;;;5026239;28;20757;-63
2021/07/26 02:48:04;;;;;;;1.52;1.10;;;;;;;;;;5035063;28;20495;-63
2021/07/26 02:50:30;;;;;;;1.33;1.20;;;;;;;;;;5046315;28;20449;-63
2021/07/26 02:52:59;;;;;;;1.55;1.23;;;;;;;;;;5046563;28;20511;-63
2021/07/26 02:55:27;;;;;;;1.52;1.10;;;;;;;;;;5040742;28;20037;-64
2021/07/26 02:57:53;;;;;;;1.42;1.30;;;;;;;;;;5034608;28;20056;-64
2021/07/26 03:00:19;;;;;;;0.98;0.85;;;;;;;;;;5024010;28;20411;-64
2021/07/26 03:02:45;;;;;;;0.95;0.80;;;;;;;;;;5025761;28;20496;-64
2021/07/26 03:05:12;;;;;;;3.40;1.58;;;;;;;;;;5024740;28;20036;-64
2021/07/26 03:07:38;;;;;;;0.80;0.80;;;;;;;;;;5031203;28;20041;-64
2021/07/26 03:10:04;;;;;;;1.08;1.00;;;;;;;;;;5046029;28;20371;-64
2021/07/26 03:12:30;;;;;;;1.33;1.23;;;;;;;;;;5042929;28;20021;-64
2021/07/26 03:14:56;;;;;;;1.02;0.93;;;;;;;;;;5026147;28;20021;-64
2021/07/26 03:17:25;;;;;;;1.20;1.10;;;;;;;;;;5025736;28;20072;-63
2021/07/26 03:19:53;;;;;;;1.05;0.95;;;;;;;;;;5027777;28;20029;-63
2021/07/26 03:22:39;;;;;;;0.73;0.73;;;;;;;;;;5029844;28;20033;-63
2021/07/26 03:25:05;;;;;;;1.67;1.10;;;;;;;;;;5028535;28;20561;-63
2021/07/26 03:27:31;;;;;;;1.17;0.90;;;;;;;;;;5029360;28;20695;-63
2021/07/26 03:29:57;;;;;;;1.38;1.10;;;;;;;;;;5029895;28;20411;-63
2021/07/26 03:32:23;;;;;;;1.15;0.93;;;;;;;;;;5028470;28;20032;-63
2021/07/26 03:34:49;;;;;;;1.05;0.88;;;;;;;;;;5030133;28;20021;-63
2021/07/26 03:37:15;;;;;;;1.10;1.00;;;;;;;;;;5029648;28;20476;-63
2021/07/26 03:39:41;;;;;;;1.45;0.98;;;;;;;;;;5042183;28;20022;-64
2021/07/26 03:42:07;;;;;;;1.35;1.00;;;;;;;;;;5029450;28;20033;-63
2021/07/26 03:44:33;;;;;;;0.95;0.88;;;;;;;;;;5028714;28;20033;-63
2021/07/26 03:46:59;;;;;;;1.20;0.98;;;;;;;;;;5030335;28;20036;-63
2021/07/26 03:49:25;;;;;;;0.90;0.90;;;;;;;;;;5029439;28;20108;-63
2021/07/26 03:51:51;;;;;;;1.08;0.95;;;;;;;;;;5029822;28;20039;-63
2021/07/26 03:54:18;;;;;;;1.00;0.95;;;;;;;;;;5029283;28;20109;-63
2021/07/26 03:56:44;;;;;;;1.05;0.95;;;;;;;;;;5029373;28;20034;-63
2021/07/26 03:59:10;;;;;;;0.90;0.90;;;;;;;;;;5028816;28;20566;-63
2021/07/26 04:01:36;;;;;;;1.20;1.10;;;;;;;;;;5028954;28;20031;-63
2021/07/26 04:04:02;;;;;;;1.35;1.25;;;;;;;;;;5029501;28;20109;-64
2021/07/26 04:06:28;;;;;;;0.98;0.88;;;;;;;;;;5029025;28;20534;-64
2021/07/26 04:08:54;;;;;;;1.50;1.10;;;;;;;;;;5038874;28;20072;-63
2021/07/26 04:11:40;;;;;;;1.98;0.95;;;;;;;;;;5048145;28;20047;-63
2021/07/26 04:14:08;;;;;;;1.85;0.70;;;;;;;;;;5049203;28;20116;-63
2021/07/26 04:16:34;;;;;;;1.20;1.10;;;;;;;;;;5049094;28;20028;-63
2021/07/26 04:19:02;;;;;;;0.88;0.88;;;;;;;;;;5032841;28;20037;-63
2021/07/26 04:21:32;;;;;;;1.15;1.05;;;;;;;;;;5029557;28;20030;-63
2021/07/26 04:23:59;;;;;;;1.02;0.98;;;;;;;;;;5029579;28;20030;-63
2021/07/26 04:26:25;;;;;;;1.33;0.95;;;;;;;;;;5027297;28;20541;-63
2021/07/26 04:28:52;;;;;;;1.02;0.93;;;;;;;;;;5028488;28;20041;-63
2021/07/26 04:31:18;;;;;;;1.10;1.00;;;;;;;;;;5027693;28;20021;-64
2021/07/26 04:33:44;;;;;;;1.27;1.13;;;;;;;;;;5028687;28;20029;-63
2021/07/26 04:36:10;;;;;;;1.02;0.93;;;;;;;;;;5028816;28;20553;-64
2021/07/26 04:38:36;;;;;;;1.75;0.82;;;;;;;;;;5038179;28;20655;-63
2021/07/26 04:41:03;;;;;;;1.20;1.00;;;;;;;;;;5048918;28;20021;-63
2021/07/26 04:43:29;;;;;;;1.15;1.00;;;;;;;;;;5049142;28;20036;-63
2021/07/26 04:45:56;;;;;;;1.50;1.30;;;;;;;;;;5028796;28;20036;-63
2021/07/26 04:48:22;;;;;;;1.15;1.02;;;;;;;;;;5028264;28;20037;-63
2021/07/26 04:50:48;;;;;;;0.80;0.80;;;;;;;;;;5028091;28;20037;-63
2021/07/26 04:53:14;;;;;;;1.15;1.02;;;;;;;;;;5028078;28;20108;-61
2021/07/26 04:55:40;;;;;;;1.27;1.10;;;;;;;;;;5028597;28;20025;-57
2021/07/26 04:58:06;;;;;;;1.38;0.90;;;;;;;;;;5028488;28;20506;-58
2021/07/26 05:00:33;;;;;;;1.13;0.98;;;;;;;;;;5028634;28;20523;-58
2021/07/26 05:02:59;;;;;;;1.20;1.10;;;;;;;;;;5039881;28;20512;-58
2021/07/26 05:05:25;;;;;;;3.38;1.10;;;;;;;;;;5040156;28;20029;-58
2021/07/26 05:07:51;;;;;;;1.10;1.00;;;;;;;;;;5032188;28;20565;-58
2021/07/26 05:10:17;;;;;;;1.35;1.13;;;;;;;;;;5027465;28;20393;-58
2021/07/26 05:12:43;;;;;;;1.00;0.90;;;;;;;;;;5028151;28;20117;-58
2021/07/26 05:15:10;;;;;;;1.27;1.17;;;;;;;;;;5027402;28;20037;-58
2021/07/26 05:17:36;;;;;;;1.33;1.05;;;;;;;;;;5027775;28;20064;-58
2021/07/26 05:20:03;;;;;;;1.08;0.85;;;;;;;;;;5028057;28;20033;-58
2021/07/26 05:22:29;;;;;;;1.00;1.00;;;;;;;;;;5028242;28;20040;-59
2021/07/26 05:24:55;;;;;;;2.22;1.00;;;;;;;;;;5028065;28;20029;-59
2021/07/26 05:27:21;;;;;;;1.10;1.00;;;;;;;;;;5027224;28;20444;-59
2021/07/26 05:29:47;;;;;;;1.60;1.50;;;;;;;;;;5027421;28;20514;-59
2021/07/26 05:32:13;;;;;;;1.00;0.90;;;;;;;;;;5027503;28;20113;-59
2021/07/26 05:34:40;;;;;;;1.10;0.88;;;;;;;;;;5027816;28;20753;-59
2021/07/26 05:37:07;;;;;;;1.80;1.50;;;;;;;;;;5027393;28;20113;-59
2021/07/26 05:39:33;;;;;;;1.67;1.00;;;;;;;;;;5038585;28;20051;-59
2021/07/26 05:41:59;;;;;;;2.03;1.30;;;;;;;;;;5037427;28;20033;-59
2021/07/26 05:44:26;;;;;;;2.65;1.73;;;;;;;;;;5039172;28;20090;-58
2021/07/26 05:46:52;;;;;;;1.58;1.15;;;;;;;;;;5043997;28;20044;-59
2021/07/26 05:49:18;;;;;;;1.20;1.10;;;;;;;;;;5027107;28;20032;-59
2021/07/26 05:51:44;;;;;;;1.65;1.45;;;;;;;;;;5027071;28;20017;-59
2021/07/26 05:54:10;;;;;;;1.35;1.13;;;;;;;;;;5027231;28;20101;-59
2021/07/26 05:56:47;;;;;;;2.08;1.48;;;;;;;;;;5028623;28;20587;-59
2021/07/26 05:59:13;;;;;;;1.30;1.20;;;;;;;;;;5038459;28;20495;-66
2021/07/26 06:01:48;;;;;;;1.27;1.10;;;;;;;;;;5027284;28;20079;-65
2021/07/26 06:04:15;;;;;;;1.23;1.05;;;;;;;;;;5026865;28;20034;-65
2021/07/26 06:06:43;;;;;;;1.35;1.20;;;;;;;;;;5027246;28;20045;-64
2021/07/26 06:09:09;;;;;;;1.75;1.20;;;;;;;;;;5026967;28;20067;-64
2021/07/26 06:11:36;;;;;;;2.20;1.20;;;;;;;;;;5027058;28;20113;-64
2021/07/26 06:14:02;;;;;;;1.42;1.27;;;;;;;;;;5027429;28;20092;-64
2021/07/26 06:16:28;;;;;;;1.30;1.20;;;;;;;;;;5025670;28;20036;-65
2021/07/26 06:18:54;;;;;;;2.33;1.30;;;;;;;;;;5026839;28;20100;-63
2021/07/26 06:21:21;;;;;;;1.63;1.30;;;;;;;;;;5037272;28;20590;-63
2021/07/26 06:23:47;;;;;;;4.68;1.30;;;;;;;;;;5028874;28;20037;-63
2021/07/26 06:26:13;;;;;;;1.52;1.17;;;;;;;;;;5026488;28;20033;-63
2021/07/26 06:28:39;;;;;;;1.67;1.10;;;;;;;;;;5026570;28;20498;-62
2021/07/26 06:31:06;;;;;;;2.53;1.33;;;;;;;;;;5029634;28;20029;-63
2021/07/26 06:33:33;;;;;;;1.98;1.50;;;;;;;;;;5026093;28;20060;-63
2021/07/26 06:36:02;;;;;;;1.58;1.20;;;;;;;;;;5027427;28;20021;-63
2021/07/26 06:38:28;;;;;;;2.92;1.35;;;;;;;;;;5027282;28;20030;-63
2021/07/26 06:40:54;;;;;;;2.35;1.30;;;;;;;;;;5026661;28;20468;-63
2021/07/26 06:43:20;;;;;;;1.67;1.38;;;;;;;;;;5035405;28;20470;-63
2021/07/26 06:45:46;;;;;;;3.72;1.70;;;;;;;;;;5026589;28;20026;-63
2021/07/26 06:48:12;;;;;;;1.35;1.23;;;;;;;;;;5026361;28;20375;-62
2021/07/26 06:50:39;;;;;;;2.95;1.33;;;;;;;;;;5026503;28;20109;-63
2021/07/26 06:53:06;;;;;;;1.50;1.40;;;;;;;;;;5026219;28;20032;-63
2021/07/26 06:55:32;;;;;;;1.50;1.40;;;;;;;;;;5025551;28;20558;-63
2021/07/26 06:57:58;;;;;;;2.20;1.35;;;;;;;;;;5027074;28;20618;-62
2021/07/26 07:00:24;;;;;;;3.53;1.50;;;;;;;;;;5025820;28;20388;-62
2021/07/26 07:02:51;;;;;;;1.40;1.30;;;;;;;;;;5026391;28;20555;-63
2021/07/26 07:05:18;;;;;;;2.00;1.60;;;;;;;;;;5033148;28;20420;-63
2021/07/26 07:07:44;;;;;;;2.20;1.48;;;;;;;;;;5037237;28;20108;-63
2021/07/26 07:10:10;;;;;;;2.50;1.42;;;;;;;;;;5046129;28;20055;-63
2021/07/26 07:12:37;;;;;;;1.55;1.23;;;;;;;;;;5033868;28;20033;-63
2021/07/26 07:15:03;;;;;;;1.67;1.30;;;;;;;;;;5030246;28;20025;-63
2021/07/26 07:17:29;;;;;;;1.25;1.15;;;;;;;;;;5041265;28;20021;-63
2021/07/26 07:19:55;;;;;;;1.42;1.33;;;;;;;;;;5035234;28;20029;-63
2021/07/26 07:22:21;;;;;;;1.67;1.58;;;;;;;;;;5026909;28;20570;-63
2021/07/26 07:24:47;;;;;;;2.75;1.80;;;;;;;;;;5023714;28;20037;-63
2021/07/26 07:27:14;;;;;;;1.50;1.40;;;;;;;;;;5024873;28;20052;-63
2021/07/26 07:29:40;;;;;;;1.77;1.35;;;;;;;;;;5026405;28;20033;-63
2021/07/26 07:32:09;;;;;;;2.10;1.30;;;;;;;;;;5026358;28;20034;-63
2021/07/26 07:34:35;;;;;;;2.22;1.38;;;;;;;;;;5040993;28;20086;-63
2021/07/26 07:37:03;;;;;;;1.63;1.23;;;;;;;;;;5032959;28;20034;-63
2021/07/26 07:39:30;;;;;;;1.77;1.48;;;;;;;;;;5029088;28;20025;-64
2021/07/26 07:41:56;;;;;;;1.50;1.40;;;;;;;;;;5030585;28;20506;-64
2021/07/26 07:44:29;;;;;;;1.50;1.40;;;;;;;;;;5030495;28;20915;-63
2021/07/26 07:46:55;;;;;;;2.28;1.40;;;;;;;;;;5034297;28;20035;-64
2021/07/26 07:49:21;;;;;;;2.20;1.33;;;;;;;;;;5028145;28;20037;-63
2021/07/26 07:51:48;;;;;;;3.45;1.73;;;;;;;;;;5042257;28;20535;-64
2021/07/26 07:54:14;;;;;;;3.63;1.50;;;;;;;;;;5045515;28;20644;-63
2021/07/26 07:56:42;;;;;;;1.40;1.30;;;;;;;;;;5039666;28;20105;-63
2021/07/26 07:59:10;;;;;;;1.60;1.50;;;;;;;;;;5026496;28;20462;-64
2021/07/26 08:01:36;;;;;;;2.20;1.45;;;;;;;;;;5027446;28;20116;-64
2021/07/26 08:04:03;;;;;;;1.63;1.40;;;;;;;;;;5038489;28;20430;-65
2021/07/26 08:06:29;;;;;;;1.35;1.25;;;;;;;;;;5047924;28;20067;-64
2021/07/26 08:08:56;;;;;;;1.85;1.60;;;;;;;;;;5029446;28;20076;-64
2021/07/26 08:11:22;;;;;;;1.60;1.40;;;;;;;;;;5028774;28;20033;-64
2021/07/26 08:13:48;;;;;;;1.50;1.40;;;;;;;;;;5029037;28;20152;-63
2021/07/26 08:16:14;;;;;;;1.20;1.10;;;;;;;;;;5043238;28;20032;-64
2021/07/26 08:18:41;;;;;;;2.72;1.48;;;;;;;;;;5048921;28;20592;-64
2021/07/26 08:21:07;;;;;;;1.55;1.20;;;;;;;;;;5045113;28;20163;-65
2021/07/26 08:23:34;;;;;;;1.10;1.00;;;;;;;;;;5049503;28;20505;-63
2021/07/26 08:26:00;;;;;;;1.30;1.20;;;;;;;;;;5035813;28;20136;-65
2021/07/26 08:28:26;;;;;;;1.38;1.27;;;;;;;;;;5046681;28;20021;-65
2021/07/26 08:30:52;;;;;;;1.70;1.30;;;;;;;;;;5030300;28;20040;-65
2021/07/26 08:33:19;;;;;;;1.25;1.15;;;;;;;;;;5035504;28;20013;-65
2021/07/26 08:35:45;;;;;;;2.55;1.70;;;;;;;;;;5048689;28;20021;-65
2021/07/26 08:38:11;;;;;;;1.45;1.30;;;;;;;;;;5038706;28;20032;-65
2021/07/26 08:40:37;;;;;;;1.52;1.42;;;;;;;;;;5043759;28;20056;-64
2021/07/26 08:43:05;;;;;;;2.03;1.52;;;;;;;;;;5041270;28;20030;-65
2021/07/26 08:45:32;;;;;;;2.13;1.50;;;;;;;;;;5043710;28;20510;-64
2021/07/26 08:48:03;;;;;;;1.50;1.40;;;;;;;;;;5066907;28;20028;-64
2021/07/26 08:50:31;;;;;;;1.27;1.17;;;;;;;;;;5060593;28;20050;-65
2021/07/26 08:52:58;;;;;;;1.65;1.35;;;;;;;;;;5028842;28;20542;-65
2021/07/26 08:55:26;;;;;;;1.30;1.20;;;;;;;;;;5030148;28;20060;-64
2021/07/26 08:57:52;;;;;;;1.40;1.30;;;;;;;;;;5026975;28;20024;-66
2021/07/26 09:00:18;;;;;;;1.85;1.33;;;;;;;;;;5044873;28;20025;-64
2021/07/26 09:02:44;;;;;;;1.42;1.30;;;;;;;;;;5048153;28;20044;-64
2021/07/26 09:05:11;;;;;;;1.63;1.50;;;;;;;;;;5041134;28;20029;-65
2021/07/26 09:07:41;;;;;;;1.60;1.42;;;;;;;;;;5028289;28;20033;-62
2021/07/26 09:10:15;;;;;;;2.17;1.45;;;;;;;;;;5027927;28;20029;-64
2021/07/26 09:12:41;;;;;;;1.93;1.40;;;;;;;;;;5028002;28;20036;-63
2021/07/26 09:15:25;;;;;;;1.42;1.33;;;;;;;;;;5028012;28;20303;-63
2021/07/26 09:17:51;;;;;;;1.50;1.40;;;;;;;;;;5027986;28;20029;-63
2021/07/26 09:20:19;;;;;;;1.73;1.50;;;;;;;;;;5034046;28;20040;-64
2021/07/26 09:22:46;;;;;;;1.67;1.42;;;;;;;;;;5047733;28;20541;-63
2021/07/26 09:25:14;;;;;;;2.35;1.90;;;;;;;;;;5047840;28;20032;-63
2021/07/26 09:27:59;;;;;;;1.70;1.58;;;;;;;;;;5043833;28;20026;-63
2021/07/26 09:30:25;;;;;;;;;;;;;;;;;;5031942;28;20542;-63
2021/07/26 09:32:52;;;;;;;1.92;1.65;;;;;;;;;;5044331;28;19920;-62
2021/07/26 09:35:22;;;;;;;2.17;1.40;;;;;;;;;;5036062;28;20021;-62
2021/07/26 09:37:56;;;;;;;1.45;1.33;;;;;;;;;;5027810;28;20049;-63
2021/07/26 09:40:23;;;;;;;1.35;1.20;;;;;;;;;;5046978;28;20028;-63
2021/07/26 09:42:49;;;;;;;1.48;1.38;;;;;;;;;;5044230;28;20032;-57
2021/07/26 09:45:22;;;;;;;1.45;1.30;;;;;;;;;;5035737;28;20033;-63
2021/07/26 09:48:09;;;;;;;1.38;1.27;;;;;;;;;;5027114;28;20041;-63
2021/07/26 09:50:36;;;;;;;1.77;1.30;;;;;;;;;;5027137;28;20022;-63
2021/07/26 09:53:16;;;;;;;1.48;1.38;;;;;;;;;;5027432;28;20037;-63
2021/07/26 09:55:43;;;;;;;2.58;1.70;;;;;;;;;;5026784;28;20117;-63
2021/07/26 09:58:11;;;;;;;2.50;1.38;;;;;;;;;;5028917;28;20037;-63
2021/07/26 10:00:38;;;;;;;1.20;1.10;;;;;;;;;;5045876;28;20060;-63
2021/07/26 10:03:06;;;;;;;1.88;1.63;;;;;;;;;;5038672;28;20035;-63
2021/07/26 10:05:33;;;;;;;1.70;1.60;;;;;;;;;;5035406;28;20025;-62
2021/07/26 10:08:03;;;;;;;1.83;1.60;;;;;;;;;;5036502;28;20442;-64
2021/07/26 10:10:30;;;;;;;1.60;1.45;;;;;;;;;;5027977;28;20071;-63
2021/07/26 10:12:56;;;;;;;1.67;1.58;;;;;;;;;;5040346;28;20074;-65
2021/07/26 10:15:22;;;;;;;1.80;1.70;;;;;;;;;;5033276;28;20036;-64
2021/07/26 10:17:49;;;;;;;1.58;1.40;;;;;;;;;;5025977;28;20026;-64
2021/07/26 10:20:32;;;;;;;1.83;1.30;;;;;;;;;;5032171;28;20550;-64
2021/07/26 10:23:06;;;;;;;1.75;1.40;;;;;;;;;;5027088;28;20041;-64
2021/07/26 10:25:38;;;;;;;1.55;1.40;;;;;;;;;;5044669;28;20033;-63
2021/07/26 10:28:08;;;;;;;1.50;1.40;;;;;;;;;;5032524;28;20597;-64
2021/07/26 10:30:35;;;;;;;2.22;1.60;;;;;;;;;;5024838;28;20025;-64
2021/07/26 10:33:03;;;;;;;2.88;1.80;;;;;;;;;;5038617;28;20499;-64
2021/07/26 10:35:29;;;;;;;1.83;1.70;;;;;;;;;;5044127;28;20064;-65
2021/07/26 10:37:55;;;;;;;2.17;1.80;;;;;;;;;;5028722;28;20060;-66
2021/07/26 10:40:22;;;;;;;2.30;1.60;;;;;;;;;;5025526;28;20605;-66
2021/07/26 10:42:52;;;;;;;1.95;1.65;;;;;;;;;;5037788;28;20022;-67
2021/07/26 10:45:34;;;;;;;2.17;1.63;;;;;;;;;;5051546;28;20136;-66
2021/07/26 10:48:19;;;;;;;2.63;2.00;;;;;;;;;;5038646;28;20025;-65
2021/07/26 10:50:46;;;;;;;2.17;1.92;;;;;;;;;;5034028;28;20503;-65
2021/07/26 10:53:35;;;;;;;2.40;1.90;;;;;;;;;;5033083;28;20025;-66
2021/07/26 10:56:04;;;;;;;2.67;1.80;;;;;;;;;;5037498;28;20491;-66
2021/07/26 10:58:39;;;;;;;1.80;1.70;;;;;;;;;;5044165;28;20499;-67
2021/07/26 11:01:17;;;;;;;2.15;1.90;;;;;;;;;;5024472;28;20068;-67
2021/07/26 11:03:43;;;;;;;2.47;1.80;;;;;;;;;;5031950;28;20040;-68
2021/07/26 11:06:10;;;;;;;1.70;1.60;;;;;;;;;;5026065;28;20029;-72
2021/07/26 11:08:37;;;;;;;1.92;1.80;;;;;;;;;;5032261;28;20029;-69
2021/07/26 11:11:03;;;;;;;2.17;1.73;;;;;;;;;;5029232;28;20057;-69
2021/07/26 11:13:45;;;;;;;1.98;1.55;;;;;;;;;;5028254;28;20488;-69
2021/07/26 11:16:11;;;;;;;1.48;1.38;;;;;;;;;;5062001;28;20021;-68
2021/07/26 11:18:44;;;;;;;1.55;1.45;;;;;;;;;;5061125;28;20618;-69
2021/07/26 11:21:10;;;;;;;1.55;1.42;;;;;;;;;;5034837;28;20025;-69
2021/07/26 11:23:42;;;;;;;1.77;1.33;;;;;;;;;;5045393;28;20055;-69
2021/07/26 11:26:15;;;;;;;1.70;1.60;;;;;;;;;;5026218;28;20029;-70
2021/07/26 11:28:41;;;;;;;1.38;1.20;;;;;;;;;;5026192;28;20113;-68
2021/07/26 11:31:07;;;;;;;1.40;1.30;;;;;;;;;;5026956;28;20108;-70
2021/07/26 11:33:33;;;;;;;1.38;1.27;;;;;;;;;;5032767;28;20029;-71
2021/07/26 11:36:00;;;;;;;1.50;1.40;;;;;;;;;;5042770;28;20036;-71
2021/07/26 11:38:27;;;;;;;2.00;1.63;;;;;;;;;;5033884;28;20033;-69
2021/07/26 11:40:53;;;;;;;2.15;1.70;;;;;;;;;;5027374;28;20108;-69
2021/07/26 11:43:35;;;;;;;1.52;1.42;;;;;;;;;;5039626;28;20433;-70
2021/07/26 11:46:01;;;;;;;3.05;1.58;;;;;;;;;;5050638;28;20036;-69
2021/07/26 11:48:30;;;;;;;1.42;1.33;;;;;;;;;;5048588;28;20037;-71
2021/07/26 11:50:56;;;;;;;1.40;1.30;;;;;;;;;;5036000;28;20034;-69
2021/07/26 11:53:27;;;;;;;1.30;1.20;;;;;;;;;;5048427;28;20052;-67
2021/07/26 11:55:53;;;;;;;1.75;1.50;;;;;;;;;;5032273;28;20021;-69
2021/07/26 11:58:25;;;;;;;2.03;1.50;;;;;;;;;;5041028;28;20029;-69
2021/07/26 12:00:51;;;;;;;1.67;1.55;;;;;;;;;;5043009;28;20037;-67
2021/07/26 12:03:18;;;;;;;1.40;1.30;;;;;;;;;;5042432;28;20079;-71
2021/07/26 12:05:44;;;;;;;1.80;1.63;;;;;;;;;;5034490;28;20061;-73
2021/07/26 12:08:14;;;;;;;1.98;1.60;;;;;;;;;;5037495;28;20032;-72
2021/07/26 12:10:41;;;;;;;1.48;1.38;;;;;;;;;;5034641;28;20418;-72
2021/07/26 12:13:09;;;;;;;1.80;1.55;;;;;;;;;;5036341;28;20534;-71
2021/07/26 12:15:36;;;;;;;1.40;1.30;;;;;;;;;;5029163;28;20021;-69
2021/07/26 12:18:09;;;;;;;1.75;1.63;;;;;;;;;;5029734;28;20029;-72
2021/07/26 12:20:36;;;;;;;1.63;1.52;;;;;;;;;;5033614;28;20037;-70
2021/07/26 12:23:14;;;;;;;1.70;1.20;;;;;;;;;;5043686;28;20033;-70
2021/07/26 12:25:47;;;;;;;1.77;1.50;;;;;;;;;;5044818;28;20107;-71
2021/07/26 12:28:14;;;;;;;2.10;1.50;;;;;;;;;;5045667;28;20036;-71
2021/07/26 12:30:43;;;;;;;1.30;1.20;;;;;;;;;;5036796;28;20029;-71
2021/07/26 12:33:10;;;;;;;1.77;1.65;;;;;;;;;;5028236;28;20072;-71
2021/07/26 12:35:36;;;;;;;1.98;1.45;;;;;;;;;;5027928;28;20030;-71
2021/07/26 12:38:03;;;;;;;1.60;1.50;;;;;;;;;;5028160;28;20029;-71
2021/07/26 12:40:29;;;;;;;2.85;2.13;;;;;;;;;;5034385;28;20037;-71
2021/07/26 12:43:06;;;;;;;2.30;2.05;;;;;;;;;;5046184;28;20099;-70
2021/07/26 12:45:33;;;;;;;2.10;1.90;;;;;;;;;;5032885;28;20108;-71
2021/07/26 12:47:59;;;;;;;2.08;1.88;;;;;;;;;;5046007;28;20033;-71
2021/07/26 12:50:26;;;;;;;2.38;1.80;;;;;;;;;;5045524;28;20085;-69
2021/07/26 12:52:52;;;;;;;2.25;2.05;;;;;;;;;;5045112;28;20043;-69
2021/07/26 12:55:18;;;;;;;3.17;2.13;;;;;;;;;;5045637;28;20029;-69
2021/07/26 12:57:45;;;;;;;2.45;2.17;;;;;;;;;;5045853;28;20360;-70
2021/07/26 13:00:11;;;;;;;2.35;1.95;;;;;;;;;;5046161;28;20572;-70
2021/07/26 13:02:38;;;;;;;2.72;2.05;;;;;;;;;;5028372;28;20033;-71
2021/07/26 13:05:05;;;;;;;2.13;1.80;;;;;;;;;;5025672;28;20033;-68
2021/07/26 13:07:32;;;;;;;1.63;1.52;;;;;;;;;;5025718;28;20593;-67
2021/07/26 13:09:59;;;;;;;2.00;1.80;;;;;;;;;;5025248;28;20041;-67
2021/07/26 13:12:25;;;;;;;4.50;1.88;;;;;;;;;;5026659;28;20057;-69
2021/07/26 13:14:52;;;;;;;2.40;2.08;;;;;;;;;;5025622;28;20036;-68
2021/07/26 13:17:18;;;;;;;2.38;1.88;;;;;;;;;;5025358;28;20025;-68
2021/07/26 13:19:44;;;;;;;2.08;1.88;;;;;;;;;;5025770;28;20025;-73
2021/07/26 13:22:10;;;;;;;1.65;1.55;;;;;;;;;;5025583;28;20052;-73
2021/07/26 13:24:36;;;;;;;1.95;1.55;;;;;;;;;;5029682;28;20433;-72
2021/07/26 13:27:02;;;;;;;1.73;1.60;;;;;;;;;;5025433;28;20041;-72
2021/07/26 13:29:28;;;;;;;1.75;1.58;;;;;;;;;;5024992;28;20635;-72
2021/07/26 13:31:54;;;;;;;1.65;1.55;;;;;;;;;;5028455;28;20125;-74
2021/07/26 13:34:20;;;;;;;2.15;1.70;;;;;;;;;;5025029;28;20036;-77
2021/07/26 13:36:46;;;;;;;2.20;1.65;;;;;;;;;;5028410;28;20072;-74
2021/07/26 13:39:14;;;;;;;2.85;1.60;;;;;;;;;;5025305;28;20021;-76
2021/07/26 13:41:40;;;;;;;2.03;1.60;;;;;;;;;;5025694;28;20395;-76
2021/07/26 13:44:06;;;;;;;2.42;1.65;;;;;;;;;;5028512;28;20112;-74
2021/07/26 13:46:32;;;;;;;2.00;1.35;;;;;;;;;;5027704;28;20112;-74
2021/07/26 13:48:59;;;;;;;1.67;1.58;;;;;;;;;;5033078;28;20025;-75
2021/07/26 13:51:25;;;;;;;1.80;1.58;;;;;;;;;;5028301;28;20029;-67
2021/07/26 13:53:51;;;;;;;2.25;1.58;;;;;;;;;;5027980;28;20025;-66
2021/07/26 13:56:17;;;;;;;2.38;1.88;;;;;;;;;;5031952;28;20041;-65
2021/07/26 13:58:43;;;;;;;1.60;1.50;;;;;;;;;;5033809;28;20051;-65
2021/07/26 14:01:09;;;;;;;1.77;1.63;;;;;;;;;;5048172;28;20029;-64
2021/07/26 14:03:36;;;;;;;1.95;1.52;;;;;;;;;;5040390;28;20033;-66
2021/07/26 14:06:02;;;;;;;1.95;1.65;;;;;;;;;;5036040;28;20025;-66
2021/07/26 14:08:28;;;;;;;1.95;1.75;;;;;;;;;;5025952;28;20045;-66
2021/07/26 14:10:55;;;;;;;1.92;1.70;;;;;;;;;;5027673;28;20098;-67
2021/07/26 14:13:21;;;;;;;1.90;1.75;;;;;;;;;;5033947;28;20028;-68
2021/07/26 14:15:47;;;;;;;2.10;1.92;;;;;;;;;;5026955;28;20030;-66
2021/07/26 14:18:17;;;;;;;1.85;1.67;;;;;;;;;;5039789;28;20087;-68
2021/07/26 14:20:43;;;;;;;1.40;1.30;;;;;;;;;;5028762;28;20529;-70
2021/07/26 14:23:09;;;;;;;1.65;1.55;;;;;;;;;;5045807;28;20035;-68
2021/07/26 14:25:35;;;;;;;1.48;1.38;;;;;;;;;;5043858;28;20463;-67
2021/07/26 14:28:02;;;;;;;1.65;1.55;;;;;;;;;;5034948;28;20037;-68
2021/07/26 14:30:28;;;;;;;2.17;1.83;;;;;;;;;;5025355;28;20041;-68
2021/07/26 14:32:54;;;;;;;2.60;2.10;;;;;;;;;;5025821;28;20396;-69
2021/07/26 14:35:20;;;;;;;2.55;1.83;;;;;;;;;;5026102;28;20036;-69
2021/07/26 14:37:47;;;;;;;2.05;1.60;;;;;;;;;;5029168;28;20025;-67
2021/07/26 14:40:13;;;;;;;2.33;2.00;;;;;;;;;;5045344;28;20040;-67
2021/07/26 14:42:40;;;;;;;2.08;1.88;;;;;;;;;;5032568;28;20037;-68
2021/07/26 14:45:08;;;;;;;2.30;2.10;;;;;;;;;;5025684;28;20038;-67